Ripon, Canada
Current Conditions -  °F | °C
As of 9:00 PM on Friday 19 Dec 2014 (Local Time) from CYND Reporting Station
Clear Clear  
Wind Chill:   Ceiling: Unl
Heat Index:   Visibility: 15mi
Dew Point:   Wind: 2mph
Humidity: 92%   Direction: 290°WNW
Pressure: 30.24"   Gusts: NA
Location:  45.78°N, 75.1°W
Report Text: CYND 200200Z 29002KT 15SM SKC M14/M15 A3024 RMK LAST OBS/NEXT 201200 UTC SLP246
Loading
Personal Weather Stations






























Interactive Weather Map New forecast layout! Learn more

10-Day Weather Forecast

Advertisements
Track Severe Weather on mobile